Time;durP1;ratioP1;P1;durP2;ratioP2;P2;SDS_P1;SDS_P2;PMS_P1;PMS_P2;Temp;Humidity;BMP_temperature;BMP_pressure;BME280_temperature;BME280_humidity;BME280_pressure;Samples;Min_cycle;Max_cycle;Signal;HPM_P1;HPM_P2
2023/10/01 00:00:12;;;;;;;14.48;5.78;;;;;;;15.53;100.00;102258.44;5017939;28;20112;-77
2023/10/01 00:02:40;;;;;;;13.18;6.97;;;;;;;15.44;100.00;102260.72;5017825;28;20053;-77
2023/10/01 00:05:06;;;;;;;13.40;5.38;;;;;;;15.51;100.00;102245.91;5020411;28;20030;-76
2023/10/01 00:07:36;;;;;;;13.60;6.78;;;;;;;15.49;100.00;102239.81;5019129;28;20124;-77
2023/10/01 00:10:10;;;;;;;10.80;6.43;;;;;;;15.44;100.00;102238.94;5016243;28;20491;-76
2023/10/01 00:12:38;;;;;;;11.90;6.88;;;;;;;15.39;100.00;102244.09;5034595;28;20041;-76
2023/10/01 00:15:06;;;;;;;14.73;6.82;;;;;;;15.37;100.00;102238.03;5017913;28;20026;-76
2023/10/01 00:17:31;;;;;;;12.93;6.00;;;;;;;15.38;100.00;102229.16;5015179;28;20564;-75
2023/10/01 00:19:57;;;;;;;15.40;5.75;;;;;;;15.30;100.00;102232.25;5013622;28;20156;-76
2023/10/01 00:22:23;;;;;;;14.73;7.10;;;;;;;15.31;100.00;102225.44;5019666;28;20055;-75
2023/10/01 00:24:49;;;;;;;12.40;6.18;;;;;;;15.34;100.00;102216.22;5016575;28;20493;-76
2023/10/01 00:27:14;;;;;;;11.45;6.68;;;;;;;15.29;100.00;102205.25;5016676;28;20064;-77
2023/10/01 00:29:39;;;;;;;12.13;6.35;;;;;;;15.23;100.00;102205.56;5018020;28;20085;-74
2023/10/01 00:32:05;;;;;;;10.98;5.90;;;;;;;15.28;100.00;102206.44;5017477;28;20508;-74
2023/10/01 00:34:30;;;;;;;12.93;6.70;;;;;;;15.15;100.00;102203.81;5016132;28;20060;-74
2023/10/01 00:36:55;;;;;;;13.68;7.40;;;;;;;15.27;100.00;102210.47;5018046;28;20489;-74
2023/10/01 00:39:20;;;;;;;11.50;6.65;;;;;;;15.14;100.00;102210.66;5025224;28;20583;-74
2023/10/01 00:41:46;;;;;;;12.93;6.80;;;;;;;15.19;100.00;102215.97;5023520;28;20033;-75
2023/10/01 00:44:13;;;;;;;17.50;7.32;;;;;;;15.30;100.00;102212.50;5029239;28;20030;-76
2023/10/01 00:46:38;;;;;;;13.38;6.20;;;;;;;15.24;100.00;102215.66;5028881;28;20029;-76
2023/10/01 00:49:07;;;;;;;10.27;5.93;;;;;;;15.30;100.00;102218.97;5024493;28;20469;-78
2023/10/01 00:51:32;;;;;;;13.55;6.63;;;;;;;15.27;100.00;102218.94;5030262;28;20125;-79
2023/10/01 00:54:02;;;;;;;11.23;6.93;;;;;;;15.33;100.00;102225.88;5024797;28;20108;-79
2023/10/01 00:56:27;;;;;;;12.77;7.30;;;;;;;15.25;100.00;102220.09;5022704;28;20036;-78
2023/10/01 00:58:53;;;;;;;14.40;6.25;;;;;;;15.35;100.00;102215.84;5018946;28;20025;-80
2023/10/01 01:01:19;;;;;;;12.68;7.18;;;;;;;15.22;100.00;102209.59;5030394;28;20113;-78
2023/10/01 01:03:52;;;;;;;17.60;6.75;;;;;;;15.22;100.00;102203.09;5021609;28;20118;-79
2023/10/01 01:06:23;;;;;;;12.90;6.93;;;;;;;15.15;100.00;102192.53;5030872;28;20167;-79
2023/10/01 01:08:54;;;;;;;12.35;6.15;;;;;;;15.21;100.00;102196.66;5019453;28;20107;-78
2023/10/01 01:11:21;;;;;;;12.85;6.63;;;;;;;15.28;100.00;102189.50;5030804;28;20033;-79
2023/10/01 01:13:48;;;;;;;13.65;6.47;;;;;;;15.30;100.00;102192.75;5022582;28;20037;-80
2023/10/01 01:16:19;;;;;;;16.35;8.10;;;;;;;15.18;100.00;102190.97;5034681;28;20030;-79
2023/10/01 01:18:46;;;;;;;12.77;6.70;;;;;;;15.22;100.00;102189.84;5032947;28;20112;-78
2023/10/01 01:21:13;;;;;;;13.25;6.57;;;;;;;15.32;100.00;102185.53;5025730;28;20048;-78
2023/10/01 01:23:42;;;;;;;11.23;6.28;;;;;;;15.38;100.00;102183.22;5034083;28;20025;-78
2023/10/01 01:26:10;;;;;;;12.98;6.70;;;;;;;15.29;100.00;102177.03;5026827;28;20072;-78
2023/10/01 01:28:36;;;;;;;11.30;7.78;;;;;;;15.20;100.00;102183.75;5025608;28;20045;-78
2023/10/01 01:31:03;;;;;;;12.20;6.32;;;;;;;15.23;100.00;102171.72;5035481;28;20071;-78
2023/10/01 01:33:34;;;;;;;13.82;6.90;;;;;;;15.23;100.00;102182.19;5028723;28;20116;-78
2023/10/01 01:36:04;;;;;;;19.85;7.53;;;;;;;15.15;100.00;102181.25;5033857;28;20025;-78
2023/10/01 01:38:34;;;;;;;14.30;7.50;;;;;;;15.09;100.00;102176.31;5033742;28;20107;-76
2023/10/01 01:41:00;;;;;;;18.70;9.13;;;;;;;15.10;100.00;102184.41;5039875;28;20429;-77
2023/10/01 01:43:30;;;;;;;14.15;8.40;;;;;;;15.09;100.00;102182.75;5020671;28;20037;-76
2023/10/01 01:46:00;;;;;;;15.65;7.07;;;;;;;15.29;100.00;102179.88;5021889;28;20037;-77
2023/10/01 01:48:30;;;;;;;11.93;7.15;;;;;;;15.30;100.00;102173.03;5024642;28;20737;-77
2023/10/01 01:51:00;;;;;;;20.60;8.07;;;;;;;15.29;100.00;102185.50;5035858;28;20036;-77
2023/10/01 01:53:26;;;;;;;14.13;8.25;;;;;;;15.24;100.00;102176.19;5030309;28;20820;-77
2023/10/01 01:55:56;;;;;;;12.20;7.75;;;;;;;15.23;100.00;102170.91;5033508;28;20430;-77
2023/10/01 01:58:24;;;;;;;13.38;7.35;;;;;;;15.21;100.00;102168.47;5028636;28;20037;-79
2023/10/01 02:01:08;;;;;;;13.80;8.55;;;;;;;15.11;100.00;102176.75;5027675;28;20025;-79
2023/10/01 02:03:44;;;;;;;12.18;7.32;;;;;;;15.20;100.00;102177.28;5016910;28;20509;-79
2023/10/01 02:06:10;;;;;;;13.32;7.30;;;;;;;15.19;100.00;102173.66;5021172;28;20060;-79
2023/10/01 02:08:59;;;;;;;12.55;7.05;;;;;;;15.20;100.00;102182.94;5018893;28;20544;-78
2023/10/01 02:11:25;;;;;;;14.88;7.38;;;;;;;15.20;100.00;102180.09;5016976;28;20049;-78
2023/10/01 02:13:54;;;;;;;15.38;8.50;;;;;;;15.15;100.00;102175.59;5020799;28;20506;-79
2023/10/01 02:19:11;;;;;;;14.07;6.78;;;;;;;15.06;100.00;102172.25;5021934;28;20037;-79
2023/10/01 02:21:44;;;;;;;15.43;7.30;;;;;;;15.13;100.00;102174.38;5021227;28;20041;-79
2023/10/01 02:24:13;;;;;;;14.18;7.70;;;;;;;15.08;100.00;102175.50;5021568;28;20067;-78
2023/10/01 02:26:46;;;;;;;12.93;7.13;;;;;;;15.08;100.00;102174.69;5016979;28;20045;-79
2023/10/01 02:29:13;;;;;;;17.17;7.90;;;;;;;15.16;100.00;102176.44;5020977;28;20029;-76
2023/10/01 02:31:39;;;;;;;14.20;6.82;;;;;;;15.24;100.00;102173.34;5018498;28;20093;-76
2023/10/01 02:34:08;;;;;;;10.27;6.60;;;;;;;15.27;100.00;102170.97;5019980;28;20060;-76
2023/10/01 02:36:36;;;;;;;11.02;6.13;;;;;;;15.17;100.00;102164.75;5020206;28;20030;-77
2023/10/01 02:39:11;;;;;;;17.42;8.82;;;;;;;15.16;100.00;102165.97;5024168;28;20033;-77
2023/10/01 02:41:40;;;;;;;10.15;5.43;;;;;;;15.15;100.00;102157.88;5018658;28;20025;-77
2023/10/01 02:44:10;;;;;;;11.73;6.45;;;;;;;15.21;100.00;102156.38;5019868;28;20083;-76
2023/10/01 02:46:37;;;;;;;12.25;6.47;;;;;;;15.25;100.00;102152.41;5020694;28;20493;-76
2023/10/01 02:49:04;;;;;;;15.10;6.82;;;;;;;15.27;100.00;102154.03;5020176;28;20430;-74
2023/10/01 02:51:37;;;;;;;10.23;6.40;;;;;;;15.21;100.00;102145.09;5016053;28;20033;-76
2023/10/01 02:54:06;;;;;;;12.20;6.63;;;;;;;15.18;100.00;102146.66;5018628;28;20421;-74
2023/10/01 02:56:37;;;;;;;12.73;6.72;;;;;;;15.11;100.00;102146.53;5019275;28;20029;-74
2023/10/01 02:59:15;;;;;;;19.35;7.93;;;;;;;15.11;100.00;102134.44;5019793;28;20033;-76
2023/10/01 03:01:46;;;;;;;13.88;6.18;;;;;;;15.07;100.00;102134.38;5016222;28;20043;-76
2023/10/01 03:04:15;;;;;;;10.98;6.20;;;;;;;15.14;100.00;102142.97;5016598;28;20033;-75
2023/10/01 03:07:04;;;;;;;13.52;7.30;;;;;;;15.15;100.00;102136.13;5017346;28;20033;-75
2023/10/01 03:09:31;;;;;;;12.82;6.70;;;;;;;15.11;100.00;102137.25;5015079;28;20501;-75
2023/10/01 03:12:24;;;;;;;12.48;6.90;;;;;;;15.18;100.00;102143.84;5017937;28;20418;-76
2023/10/01 03:14:59;;;;;;;12.23;6.88;;;;;;;15.18;100.00;102135.38;5017168;28;21350;-76
2023/10/01 03:17:27;;;;;;;10.38;5.85;;;;;;;15.20;100.00;102133.00;5019966;28;20029;-76
2023/10/01 03:19:53;;;;;;;16.48;6.15;;;;;;;15.18;100.00;102138.19;5018297;28;20405;-76
2023/10/01 03:22:23;;;;;;;11.75;5.80;;;;;;;15.25;100.00;102138.31;5019982;28;20029;-76
2023/10/01 03:24:51;;;;;;;11.85;6.15;;;;;;;15.21;100.00;102131.78;5014948;28;20386;-76
2023/10/01 03:27:27;;;;;;;8.88;5.20;;;;;;;15.11;100.00;102123.97;5017249;28;20046;-77
2023/10/01 03:30:20;;;;;;;12.38;5.47;;;;;;;15.22;100.00;102124.13;5017037;28;20029;-77
2023/10/01 03:32:46;;;;;;;11.88;6.43;;;;;;;15.16;100.00;102109.56;5017163;28;20036;-77
2023/10/01 03:35:12;;;;;;;13.05;6.00;;;;;;;15.18;100.00;102109.19;5023011;28;20038;-77
2023/10/01 03:37:38;;;;;;;10.02;6.63;;;;;;;15.15;100.00;102122.03;5022716;28;20065;-77
2023/10/01 03:40:21;;;;;;;14.07;6.47;;;;;;;15.16;100.00;102117.22;5021792;28;20036;-76
2023/10/01 03:42:51;;;;;;;9.82;5.20;;;;;;;15.23;100.00;102108.84;5017965;28;20033;-77
2023/10/01 03:47:57;;;;;;;17.50;7.57;;;;;;;15.11;100.00;102107.06;5014253;28;20040;-76
2023/10/01 03:50:24;;;;;;;11.52;5.43;;;;;;;15.09;100.00;102112.25;5019650;28;20124;-76
2023/10/01 03:52:53;;;;;;;12.35;5.70;;;;;;;15.08;100.00;102105.00;5018609;28;20037;-77
2023/10/01 03:55:29;;;;;;;10.35;5.55;;;;;;;14.99;100.00;102104.47;5017897;28;20095;-77
2023/10/01 04:03:05;;;;;;;11.40;5.40;;;;;;;15.19;100.00;102102.34;5012151;28;20029;-76
2023/10/01 04:05:31;;;;;;;10.60;5.53;;;;;;;15.19;100.00;102105.16;5014825;28;20366;-76
2023/10/01 04:08:10;;;;;;;13.45;6.25;;;;;;;15.16;100.00;102105.94;5014560;28;20064;-77
2023/10/01 04:10:38;;;;;;;9.77;5.95;;;;;;;15.11;100.00;102106.25;5014751;28;20041;-76
2023/10/01 04:13:13;;;;;;;11.48;5.88;;;;;;;15.07;100.00;102100.53;5019445;28;20060;-76
2023/10/01 04:15:41;;;;;;;14.25;5.63;;;;;;;14.96;100.00;102100.38;5018617;28;20052;-76
2023/10/01 04:18:28;;;;;;;12.43;6.05;;;;;;;15.03;100.00;102100.50;5016576;28;20175;-78
2023/10/01 04:23:33;;;;;;;11.75;7.38;;;;;;;15.13;100.00;102101.84;5015227;28;20112;-78
2023/10/01 04:26:04;;;;;;;11.73;5.75;;;;;;;15.08;100.00;102102.19;5015500;28;20050;-79
2023/10/01 04:28:35;;;;;;;14.40;5.72;;;;;;;15.00;100.00;102106.88;5016449;28;20026;-79
2023/10/01 04:31:06;;;;;;;13.40;5.53;;;;;;;15.09;100.00;102114.28;5017593;28;20033;-79
2023/10/01 04:33:31;;;;;;;11.73;5.43;;;;;;;15.14;100.00;102114.78;5015360;28;20021;-78
2023/10/01 04:35:58;;;;;;;11.57;5.95;;;;;;;15.11;100.00;102107.06;5014429;28;20444;-78
2023/10/01 04:38:32;;;;;;;10.02;5.72;;;;;;;15.13;100.00;102110.31;5023744;28;20029;-78
2023/10/01 04:41:03;;;;;;;9.80;4.90;;;;;;;15.08;100.00;102112.66;5014161;28;20025;-79
2023/10/01 04:43:34;;;;;;;10.63;5.40;;;;;;;15.09;100.00;102115.06;5019713;28;20369;-78
2023/10/01 04:46:00;;;;;;;10.25;4.50;;;;;;;15.18;100.00;102117.66;5014576;28;20809;-78
2023/10/01 04:48:26;;;;;;;11.45;5.93;;;;;;;15.15;100.00;102112.75;5012943;28;20466;-78
2023/10/01 04:50:54;;;;;;;13.20;6.00;;;;;;;15.18;100.00;102112.81;5014936;28;20037;-78
2023/10/01 04:53:25;;;;;;;15.65;6.25;;;;;;;15.11;100.00;102112.69;5017028;28;20043;-78
2023/10/01 04:56:06;;;;;;;10.77;4.97;;;;;;;15.17;100.00;102116.81;5017224;28;20099;-78
2023/10/01 04:58:36;;;;;;;16.83;6.90;;;;;;;15.16;100.00;102103.13;5018779;28;21387;-77
2023/10/01 05:01:05;;;;;;;12.25;5.60;;;;;;;15.22;100.00;102108.03;5021029;28;20397;-78
2023/10/01 05:03:40;;;;;;;12.00;4.90;;;;;;;15.17;100.00;102113.19;5017563;28;20060;-80
2023/10/01 05:06:15;;;;;;;13.07;6.15;;;;;;;15.18;100.00;102112.81;5016452;28;20405;-77
2023/10/01 05:08:42;;;;;;;10.57;5.85;;;;;;;15.20;100.00;102112.41;5019325;28;20039;-77
2023/10/01 05:11:10;;;;;;;9.80;5.35;;;;;;;15.16;100.00;102109.56;5016286;28;20045;-76
2023/10/01 05:13:42;;;;;;;14.23;6.28;;;;;;;15.07;100.00;102108.19;5017520;28;20043;-75
2023/10/01 05:16:14;;;;;;;11.27;4.80;;;;;;;15.09;100.00;102106.63;5033946;28;20048;-77
2023/10/01 05:18:43;;;;;;;11.55;6.20;;;;;;;15.14;100.00;102111.16;5020384;28;20771;-76
2023/10/01 05:21:12;;;;;;;11.93;5.40;;;;;;;15.11;100.00;102112.69;5019312;28;20418;-77
2023/10/01 05:23:43;;;;;;;8.65;4.88;;;;;;;15.20;100.00;102109.59;5022881;28;20406;-77
2023/10/01 05:26:10;;;;;;;12.75;5.20;;;;;;;15.14;100.00;102109.13;5015313;28;20099;-76
2023/10/01 05:28:36;;;;;;;12.25;4.78;;;;;;;15.13;100.00;102107.50;5019408;28;20031;-75
2023/10/01 05:31:14;;;;;;;12.40;5.43;;;;;;;15.09;100.00;102105.81;5017975;28;20569;-77
2023/10/01 05:33:46;;;;;;;10.43;5.63;;;;;;;15.15;100.00;102119.19;5015613;28;20029;-74
2023/10/01 05:36:13;;;;;;;11.70;5.25;;;;;;;15.10;100.00;102113.91;5021917;28;21336;-75
2023/10/01 05:38:43;;;;;;;16.52;5.93;;;;;;;15.06;100.00;102115.84;5020771;28;20021;-74
2023/10/01 05:41:09;;;;;;;11.80;5.35;;;;;;;15.09;100.00;102120.72;5014953;28;20473;-75
2023/10/01 05:43:43;;;;;;;14.75;4.90;;;;;;;15.07;100.00;102127.94;5013898;28;20033;-75
2023/10/01 05:46:09;;;;;;;13.07;5.13;;;;;;;15.09;100.00;102119.91;5019289;28;20367;-75
2023/10/01 05:48:43;;;;;;;10.82;5.72;;;;;;;15.14;100.00;102122.44;5018342;28;20040;-75
2023/10/01 05:51:15;;;;;;;13.95;4.97;;;;;;;15.16;100.00;102131.31;5016306;28;20136;-75
2023/10/01 05:53:43;;;;;;;9.73;5.65;;;;;;;15.13;100.00;102127.22;5015043;28;20584;-75
2023/10/01 05:56:17;;;;;;;10.20;4.47;;;;;;;15.15;100.00;102124.03;5016317;28;20040;-75
2023/10/01 05:58:45;;;;;;;8.30;4.78;;;;;;;15.17;100.00;102133.75;5019556;28;20450;-76
2023/10/01 06:01:14;;;;;;;9.13;5.10;;;;;;;15.13;100.00;102132.88;5017876;28;20664;-76
2023/10/01 06:03:41;;;;;;;15.52;6.03;;;;;;;15.10;100.00;102125.19;5011089;28;20048;-76
2023/10/01 06:06:13;;;;;;;8.07;3.75;;;;;;;15.08;100.00;102118.31;5013634;28;20038;-76
2023/10/01 06:08:49;;;;;;;11.68;5.32;;;;;;;15.10;100.00;102122.34;5010992;28;20056;-77
2023/10/01 06:11:16;;;;;;;14.82;5.82;;;;;;;15.09;100.00;102117.91;5014479;28;20045;-75
2023/10/01 06:13:51;;;;;;;14.10;4.57;;;;;;;15.12;100.00;102114.34;5012025;28;20090;-77
2023/10/01 06:16:23;;;;;;;13.63;4.60;;;;;;;15.13;100.00;102121.59;5013476;28;20506;-77
2023/10/01 06:18:58;;;;;;;10.45;4.70;;;;;;;15.18;100.00;102129.75;5008371;28;20105;-80
2023/10/01 06:21:26;;;;;;;14.23;5.20;;;;;;;15.15;100.00;102132.50;5015642;28;20036;-79
2023/10/01 06:23:53;;;;;;;11.80;5.32;;;;;;;15.16;100.00;102126.47;5007695;28;20112;-77
2023/10/01 06:26:20;;;;;;;11.38;4.85;;;;;;;15.19;100.00;102125.72;5005942;28;20395;-77
2023/10/01 06:28:47;;;;;;;15.82;6.00;;;;;;;15.20;100.00;102116.06;5013054;28;20462;-78
2023/10/01 06:31:13;;;;;;;14.38;5.53;;;;;;;15.21;100.00;102120.50;5011179;28;20026;-78
2023/10/01 06:33:38;;;;;;;9.85;5.38;;;;;;;15.19;100.00;102117.25;5012770;28;20416;-78
2023/10/01 06:36:15;;;;;;;12.73;5.32;;;;;;;15.16;100.00;102123.66;5013800;28;20030;-78
2023/10/01 06:38:41;;;;;;;12.57;5.05;;;;;;;15.13;100.00;102120.78;5015693;28;20051;-79
2023/10/01 06:41:13;;;;;;;10.23;4.40;;;;;;;15.16;100.00;102126.47;5021587;28;20636;-78
2023/10/01 06:43:49;;;;;;;9.10;5.40;;;;;;;15.16;100.00;102123.66;5012238;28;20094;-79
2023/10/01 06:46:23;;;;;;;13.00;4.93;;;;;;;15.22;100.00;102122.16;5012255;28;20048;-78
2023/10/01 06:48:50;;;;;;;11.98;5.70;;;;;;;15.20;100.00;102116.06;5010968;28;20044;-78
2023/10/01 06:51:19;;;;;;;11.90;5.95;;;;;;;15.17;100.00;102121.66;5006808;28;20045;-78
2023/10/01 06:53:47;;;;;;;10.77;4.90;;;;;;;15.18;100.00;102126.13;5005233;28;20513;-78
2023/10/01 06:56:17;;;;;;;10.65;5.43;;;;;;;15.19;100.00;102127.72;5005991;28;20041;-78
2023/10/01 07:01:34;;;;;;;10.48;4.10;;;;;;;15.27;100.00;102125.84;5005364;28;20056;-77
2023/10/01 07:04:01;;;;;;;12.57;5.97;;;;;;;15.21;100.00;102122.53;5006991;28;20030;-77
2023/10/01 07:06:26;;;;;;;12.20;4.22;;;;;;;15.24;100.00;102127.38;5012407;28;20516;-78
2023/10/01 07:08:53;;;;;;;11.05;4.93;;;;;;;15.20;100.00;102127.34;5006141;28;20117;-78
2023/10/01 07:11:19;;;;;;;8.90;5.10;;;;;;;15.25;100.00;102129.84;5007311;28;20706;-78
2023/10/01 07:13:44;;;;;;;8.98;4.90;;;;;;;15.30;100.00;102142.00;5017180;28;20029;-78
2023/10/01 07:16:10;;;;;;;10.30;4.72;;;;;;;15.32;100.00;102133.97;5010059;28;20064;-77
2023/10/01 07:18:37;;;;;;;17.85;5.20;;;;;;;15.39;100.00;102134.06;5015496;28;20025;-78
2023/10/01 07:21:16;;;;;;;13.15;4.30;;;;;;;15.34;100.00;102132.38;5016836;28;20029;-77
2023/10/01 07:23:42;;;;;;;11.88;5.70;;;;;;;15.34;100.00;102131.56;5018339;28;20492;-77
2023/10/01 07:26:12;;;;;;;14.82;5.20;;;;;;;15.35;100.00;102133.22;5012826;28;20053;-78
2023/10/01 07:28:41;;;;;;;10.45;5.10;;;;;;;15.40;100.00;102130.06;5023160;28;20060;-78
2023/10/01 07:31:07;;;;;;;14.23;5.45;;;;;;;15.41;100.00;102131.66;5021559;28;20037;-78
2023/10/01 07:33:33;;;;;;;14.70;6.00;;;;;;;15.42;100.00;102133.31;5012266;28;20029;-78
2023/10/01 07:35:59;;;;;;;14.93;5.95;;;;;;;15.43;100.00;102134.91;5014097;28;20025;-77
2023/10/01 07:38:48;;;;;;;14.20;5.72;;;;;;;15.46;100.00;102134.19;5004648;28;21556;-77
2023/10/01 07:41:16;;;;;;;12.27;5.35;;;;;;;15.46;100.00;102134.19;5016803;28;20025;-76
2023/10/01 07:43:42;;;;;;;13.73;5.00;;;;;;;15.47;100.00;102130.16;5019544;28;20021;-76
2023/10/01 07:46:08;;;;;;;16.38;5.78;;;;;;;15.47;100.00;102129.34;5018519;28;20041;-76
2023/10/01 07:48:33;;;;;;;13.93;5.05;;;;;;;15.48;100.00;102125.34;5015014;28;20581;-73
2023/10/01 07:51:02;;;;;;;13.27;6.18;;;;;;;15.52;100.00;102137.50;5013304;28;20397;-72
2023/10/01 07:53:32;;;;;;;11.98;5.88;;;;;;;15.53;100.00;102131.44;5014421;28;20025;-73
2023/10/01 07:56:07;;;;;;;8.02;4.20;;;;;;;16.40;100.00;102128.50;5008474;28;20147;-75
2023/10/01 07:58:47;;;;;;;7.75;3.53;;;;;;;17.24;100.00;102116.69;5016726;28;20096;-73
2023/10/01 08:03:57;;;;;;;14.30;5.30;;;;;;;16.75;100.00;102134.88;5013919;28;20048;-73
2023/10/01 08:06:41;;;;;;;15.18;6.43;;;;;;;16.40;100.00;102141.81;5014493;28;20482;-73
2023/10/01 08:09:11;;;;;;;11.82;4.90;;;;;;;16.14;100.00;102135.06;5015397;28;20599;-74
2023/10/01 08:11:58;;;;;;;13.40;5.47;;;;;;;16.14;100.00;102137.09;5004972;28;20052;-73
2023/10/01 08:14:26;;;;;;;12.23;5.30;;;;;;;16.11;100.00;102133.03;5014815;28;20080;-75
2023/10/01 08:16:53;;;;;;;14.88;6.22;;;;;;;16.14;100.00;102134.25;5019962;28;20029;-73
2023/10/01 08:19:21;;;;;;;7.45;4.22;;;;;;;16.15;100.00;102135.88;5014317;28;20453;-72
2023/10/01 08:21:52;;;;;;;13.75;5.18;;;;;;;16.19;100.00;102133.91;5015431;28;20441;-73
2023/10/01 08:24:20;;;;;;;12.60;5.10;;;;;;;16.24;100.00;102130.75;5013822;28;20376;-73
2023/10/01 08:27:12;;;;;;;13.45;5.38;;;;;;;16.30;100.00;102134.84;5019090;28;20132;-74
2023/10/01 08:29:59;;;;;;;14.32;4.88;;;;;;;16.39;100.00;102141.00;5020712;28;20026;-74
2023/10/01 08:32:30;;;;;;;14.80;5.15;;;;;;;16.45;100.00;102138.66;5016416;28;20118;-72
2023/10/01 08:35:02;;;;;;;9.98;5.50;;;;;;;16.52;100.00;102146.38;5019392;28;20036;-72
2023/10/01 08:37:37;;;;;;;17.13;6.18;;;;;;;16.57;100.00;102146.00;5019132;28;20083;-73
2023/10/01 08:40:13;;;;;;;15.95;6.15;;;;;;;16.62;100.00;102151.31;5022718;28;20593;-77
2023/10/01 08:42:43;;;;;;;13.63;5.28;;;;;;;16.67;100.00;102139.66;5018968;28;20477;-77
2023/10/01 08:45:11;;;;;;;12.98;5.30;;;;;;;16.73;100.00;102155.06;5017506;28;20448;-77
2023/10/01 08:47:38;;;;;;;14.60;5.90;;;;;;;16.76;100.00;102153.47;5024999;28;20445;-77
2023/10/01 08:52:55;;;;;;;12.70;5.60;;;;;;;16.78;100.00;102157.53;5021594;28;20048;-77
2023/10/01 08:55:35;;;;;;;12.45;6.10;;;;;;;16.84;100.00;102147.53;5029567;28;20061;-77
2023/10/01 08:58:13;;;;;;;13.23;5.40;;;;;;;16.92;100.00;102150.41;5028649;28;20029;-74
2023/10/01 09:00:48;;;;;;;13.52;5.53;;;;;;;17.04;100.00;102156.56;5022514;28;20128;-75
2023/10/01 09:03:26;;;;;;;16.77;5.88;;;;;;;17.24;100.00;102145.84;5016273;28;20030;-75
2023/10/01 09:06:01;;;;;;;13.98;5.85;;;;;;;17.62;100.00;102152.09;5021169;28;20021;-76
2023/10/01 09:08:31;;;;;;;15.32;5.03;;;;;;;17.98;100.00;102138.16;5018633;28;20092;-74
2023/10/01 09:11:00;;;;;;;12.63;4.97;;;;;;;17.91;100.00;102129.63;5025899;28;20057;-74
2023/10/01 09:13:30;;;;;;;18.85;5.80;;;;;;;17.94;100.00;102139.34;5021496;28;20470;-74
2023/10/01 09:16:08;;;;;;;13.85;6.20;;;;;;;17.94;100.00;102133.69;5021853;28;20402;-74
2023/10/01 09:18:37;;;;;;;10.02;5.50;;;;;;;18.18;100.00;102130.13;5020928;28;20612;-74
2023/10/01 09:21:06;;;;;;;15.77;6.38;;;;;;;18.07;100.00;102132.13;5019570;28;20489;-74
2023/10/01 09:23:55;;;;;;;15.23;5.95;;;;;;;18.13;100.00;102146.69;5018169;28;20108;-74
2023/10/01 09:26:37;;;;;;;19.30;5.60;;;;;;;18.29;100.00;102138.66;5027581;28;20045;-74
2023/10/01 09:29:13;;;;;;;11.45;5.60;;;;;;;18.36;100.00;102147.19;5014716;28;20493;-75
2023/10/01 09:31:56;;;;;;;12.57;5.38;;;;;;;18.47;100.00;102150.84;5012878;28;20037;-75
2023/10/01 09:34:36;;;;;;;18.48;6.00;;;;;;;18.54;100.00;102152.09;5011517;28;20095;-75
2023/10/01 09:37:11;;;;;;;14.35;6.00;;;;;;;18.53;100.00;102156.13;5022238;28;20044;-75
2023/10/01 09:39:41;;;;;;;15.57;6.10;;;;;;;18.43;100.00;102157.75;5023225;28;20033;-74
2023/10/01 09:42:25;;;;;;;13.30;5.63;;;;;;;18.39;100.00;102157.72;5018270;28;20044;-75
2023/10/01 09:44:55;;;;;;;20.95;7.05;;;;;;;18.42;100.00;102147.59;5014027;28;20037;-75
2023/10/01 09:47:25;;;;;;;10.77;5.00;;;;;;;18.27;100.00;102155.25;5021836;28;20039;-75
2023/10/01 09:49:54;;;;;;;15.07;5.65;;;;;;;18.31;100.00;102150.41;5021914;28;20044;-72
2023/10/01 09:52:48;;;;;;;19.50;5.90;;;;;;;18.40;100.00;102142.31;5017169;28;20033;-73
2023/10/01 09:55:26;;;;;;;14.77;5.00;;;;;;;18.47;100.00;102150.84;5015084;28;20124;-74
2023/10/01 09:57:55;;;;;;;13.73;5.57;;;;;;;18.56;100.00;102156.13;5017172;28;20359;-73
2023/10/01 10:00:21;;;;;;;15.38;5.82;;;;;;;18.56;100.00;102143.97;5014331;28;20029;-73
2023/10/01 10:02:51;;;;;;;15.98;6.63;;;;;;;18.62;100.00;102131.84;5024254;28;20080;-73
2023/10/01 10:05:26;;;;;;;18.10;6.03;;;;;;;18.68;100.00;102124.56;4997232;28;20036;-74
2023/10/01 10:07:54;;;;;;;13.25;6.10;;;;;;;18.61;100.00;102132.22;5010115;28;23087;-74
2023/10/01 10:10:24;;;;;;;16.45;6.80;;;;;;;18.74;100.00;102133.47;5013021;28;20033;-72
2023/10/01 10:12:56;;;;;;;15.77;6.60;;;;;;;18.72;100.00;102124.56;5015429;28;20033;-73
2023/10/01 10:15:56;;;;;;;15.65;5.35;;;;;;;18.81;100.00;102127.81;5008250;28;20037;-73
2023/10/01 10:18:23;;;;;;;18.42;6.28;;;;;;;18.84;100.00;102115.66;5019367;28;20536;-72
2023/10/01 10:20:59;;;;;;;13.95;5.80;;;;;;;18.95;100.00;102112.00;5011140;28;20029;-72
2023/10/01 10:23:30;;;;;;;18.30;5.75;;;;;;;19.05;100.00;102117.66;5019367;28;20489;-73
2023/10/01 10:26:13;;;;;;;15.90;5.38;;;;;;;18.97;100.00;102112.41;5017019;28;20044;-73
2023/10/01 10:28:54;;;;;;;;;;;;;;;18.94;100.00;102121.75;5009634;28;20048;-72
2023/10/01 10:31:33;;;;;;;16.15;6.93;;;;;;;19.01;100.00;102113.22;5011136;28;20411;-72
2023/10/01 10:34:28;;;;;;;14.98;5.50;;;;;;;19.13;100.00;102115.66;5007093;28;20548;-72
2023/10/01 10:36:54;;;;;;;17.00;5.75;;;;;;;19.24;100.00;102121.31;5016726;28;20025;-71
2023/10/01 10:39:45;;;;;;;10.50;5.40;;;;;;;19.11;100.00;102112.41;5017589;28;20042;-74
2023/10/01 10:42:31;;;;;;;13.82;5.55;;;;;;;19.12;100.00;102119.72;5011830;28;21415;-72
2023/10/01 10:45:23;;;;;;;14.85;5.75;;;;;;;19.32;100.00;102114.41;5014761;28;20621;-73
2023/10/01 10:48:03;;;;;;;12.65;5.10;;;;;;;19.44;100.00;102113.16;5016922;28;20486;-73
2023/10/01 10:50:39;;;;;;;11.07;4.80;;;;;;;19.53;100.00;102116.38;5014149;28;20489;-73
2023/10/01 10:53:14;;;;;;;12.95;5.13;;;;;;;19.72;100.00;102117.97;5013741;28;20037;-72
2023/10/01 10:56:10;;;;;;;11.30;4.60;;;;;;;19.78;100.00;102115.50;5014166;28;20512;-72
2023/10/01 10:58:47;;;;;;;14.85;5.80;;;;;;;19.84;100.00;102113.88;5015235;28;20033;-74
2023/10/01 11:01:18;;;;;;;17.40;5.78;;;;;;;20.00;100.00;102117.03;5016553;28;20028;-74
2023/10/01 11:03:58;;;;;;;13.63;5.30;;;;;;;19.87;100.00;102118.72;5011950;28;20037;-74
2023/10/01 11:06:29;;;;;;;13.23;4.80;;;;;;;19.82;100.00;102122.00;5020498;28;20390;-74
2023/10/01 11:08:55;;;;;;;12.77;4.38;;;;;;;19.83;100.00;102123.59;5006668;28;20037;-74
2023/10/01 11:11:25;;;;;;;13.68;5.22;;;;;;;19.96;99.33;102116.22;5013910;28;20439;-74
2023/10/01 11:14:00;;;;;;;13.23;4.97;;;;;;;20.08;100.00;102118.59;5014404;28;20029;-74
2023/10/01 11:16:39;;;;;;;13.52;6.20;;;;;;;19.98;100.00;102113.78;5019775;28;20371;-74
2023/10/01 11:19:16;;;;;;;14.40;5.30;;;;;;;20.25;100.00;102121.78;5006939;28;20033;-74
2023/10/01 11:21:58;;;;;;;13.07;5.68;;;;;;;20.30;100.00;102113.63;5009298;28;20071;-74
2023/10/01 11:24:33;;;;;;;17.20;5.47;;;;;;;20.28;100.00;102123.75;5012551;28;20041;-74
2023/10/01 11:27:26;;;;;;;13.05;4.68;;;;;;;20.23;100.00;102115.69;5018504;28;20049;-74
2023/10/01 11:30:12;;;;;;;13.57;6.13;;;;;;;20.43;100.00;102113.94;5017893;28;20121;-74
2023/10/01 11:33:01;;;;;;;15.43;5.43;;;;;;;20.71;100.00;102114.97;5019578;28;20036;-74
2023/10/01 11:35:59;;;;;;;15.65;5.45;;;;;;;20.73;100.00;102112.53;5011502;28;20037;-76
2023/10/01 11:38:28;;;;;;;14.38;6.90;;;;;;;20.72;97.71;102110.88;5012536;28;20051;-76
2023/10/01 11:41:07;;;;;;;13.40;5.25;;;;;;;20.89;97.59;102111.97;5015921;28;20025;-76
2023/10/01 11:43:59;;;;;;;12.50;4.43;;;;;;;20.99;97.63;102096.84;5018721;28;20045;-75
2023/10/01 11:47:01;;;;;;;13.63;4.88;;;;;;;20.81;97.19;102119.78;5014293;28;20064;-76
2023/10/01 11:49:34;;;;;;;13.00;4.57;;;;;;;20.84;95.82;102120.97;5015339;28;20580;-75
2023/10/01 11:52:21;;;;;;;10.13;4.85;;;;;;;20.78;96.55;102109.22;5016540;28;20583;-76